sensor_id;sensor_type;location;lat;lon;timestamp;P1;durP1;ratioP1;P2;durP2;ratioP2
70543;SDS011;58097;48.364;-1.224;2024-03-08T00:02:02;25.13;;;13.15;;
70543;SDS011;58097;48.364;-1.224;2024-03-08T00:04:28;27.10;;;13.18;;
70543;SDS011;58097;48.364;-1.224;2024-03-08T00:06:53;26.70;;;13.23;;
70543;SDS011;58097;48.364;-1.224;2024-03-08T00:09:19;32.85;;;13.43;;
70543;SDS011;58097;48.364;-1.224;2024-03-08T00:11:44;25.95;;;12.95;;
70543;SDS011;58097;48.364;-1.224;2024-03-08T00:14:09;26.15;;;13.00;;
70543;SDS011;58097;48.364;-1.224;2024-03-08T00:16:35;29.90;;;12.85;;
70543;SDS011;58097;48.364;-1.224;2024-03-08T00:19:00;29.38;;;12.80;;
70543;SDS011;58097;48.364;-1.224;2024-03-08T00:21:26;25.90;;;12.32;;
70543;SDS011;58097;48.364;-1.224;2024-03-08T00:23:52;25.48;;;12.05;;
70543;SDS011;58097;48.364;-1.224;2024-03-08T00:26:19;28.38;;;12.52;;
70543;SDS011;58097;48.364;-1.224;2024-03-08T00:28:47;25.10;;;12.02;;
70543;SDS011;58097;48.364;-1.224;2024-03-08T00:31:13;26.90;;;12.02;;
70543;SDS011;58097;48.364;-1.224;2024-03-08T00:33:39;25.00;;;12.50;;
70543;SDS011;58097;48.364;-1.224;2024-03-08T00:36:04;26.45;;;12.20;;
70543;SDS011;58097;48.364;-1.224;2024-03-08T00:38:30;28.27;;;13.13;;
70543;SDS011;58097;48.364;-1.224;2024-03-08T00:40:56;25.88;;;12.85;;
70543;SDS011;58097;48.364;-1.224;2024-03-08T00:43:22;23.60;;;11.93;;
70543;SDS011;58097;48.364;-1.224;2024-03-08T00:45:47;27.38;;;12.60;;
70543;SDS011;58097;48.364;-1.224;2024-03-08T00:48:12;26.10;;;12.55;;
70543;SDS011;58097;48.364;-1.224;2024-03-08T00:50:38;31.38;;;12.68;;
70543;SDS011;58097;48.364;-1.224;2024-03-08T00:53:03;24.17;;;12.40;;
70543;SDS011;58097;48.364;-1.224;2024-03-08T00:55:29;27.30;;;12.48;;
70543;SDS011;58097;48.364;-1.224;2024-03-08T00:57:55;26.98;;;11.68;;
70543;SDS011;58097;48.364;-1.224;2024-03-08T01:00:20;25.80;;;12.30;;
70543;SDS011;58097;48.364;-1.224;2024-03-08T01:02:46;23.30;;;11.32;;
70543;SDS011;58097;48.364;-1.224;2024-03-08T01:05:12;26.27;;;12.23;;
70543;SDS011;58097;48.364;-1.224;2024-03-08T01:07:38;23.85;;;11.95;;
70543;SDS011;58097;48.364;-1.224;2024-03-08T01:10:04;27.98;;;11.13;;
70543;SDS011;58097;48.364;-1.224;2024-03-08T01:12:34;24.07;;;12.13;;
70543;SDS011;58097;48.364;-1.224;2024-03-08T01:14:59;29.48;;;11.88;;
70543;SDS011;58097;48.364;-1.224;2024-03-08T01:17:25;30.20;;;12.02;;
70543;SDS011;58097;48.364;-1.224;2024-03-08T01:19:51;23.77;;;11.70;;
70543;SDS011;58097;48.364;-1.224;2024-03-08T01:22:16;24.23;;;11.00;;
70543;SDS011;58097;48.364;-1.224;2024-03-08T01:24:41;25.35;;;11.77;;
70543;SDS011;58097;48.364;-1.224;2024-03-08T01:27:07;25.20;;;11.82;;
70543;SDS011;58097;48.364;-1.224;2024-03-08T01:29:34;23.90;;;11.35;;
70543;SDS011;58097;48.364;-1.224;2024-03-08T01:31:59;23.02;;;11.55;;
70543;SDS011;58097;48.364;-1.224;2024-03-08T01:34:26;24.08;;;11.52;;
70543;SDS011;58097;48.364;-1.224;2024-03-08T01:36:53;25.27;;;11.70;;
70543;SDS011;58097;48.364;-1.224;2024-03-08T01:39:20;25.73;;;11.57;;
70543;SDS011;58097;48.364;-1.224;2024-03-08T01:41:47;25.00;;;11.85;;
70543;SDS011;58097;48.364;-1.224;2024-03-08T01:44:12;23.83;;;11.77;;
70543;SDS011;58097;48.364;-1.224;2024-03-08T01:46:42;22.70;;;12.25;;
70543;SDS011;58097;48.364;-1.224;2024-03-08T01:49:09;21.45;;;10.60;;
70543;SDS011;58097;48.364;-1.224;2024-03-08T01:51:35;25.35;;;12.07;;
70543;SDS011;58097;48.364;-1.224;2024-03-08T01:54:01;25.58;;;12.23;;
70543;SDS011;58097;48.364;-1.224;2024-03-08T01:56:28;24.23;;;11.35;;
70543;SDS011;58097;48.364;-1.224;2024-03-08T01:58:56;25.50;;;12.15;;
70543;SDS011;58097;48.364;-1.224;2024-03-08T02:01:22;28.73;;;12.48;;
70543;SDS011;58097;48.364;-1.224;2024-03-08T02:03:49;26.95;;;12.10;;
70543;SDS011;58097;48.364;-1.224;2024-03-08T02:06:14;26.08;;;12.25;;
70543;SDS011;58097;48.364;-1.224;2024-03-08T02:08:44;26.90;;;12.02;;
70543;SDS011;58097;48.364;-1.224;2024-03-08T02:11:10;25.13;;;12.38;;
70543;SDS011;58097;48.364;-1.224;2024-03-08T02:13:36;27.13;;;12.45;;
70543;SDS011;58097;48.364;-1.224;2024-03-08T02:16:02;24.95;;;10.80;;
70543;SDS011;58097;48.364;-1.224;2024-03-08T02:18:28;27.92;;;12.13;;
70543;SDS011;58097;48.364;-1.224;2024-03-08T02:20:55;23.85;;;11.52;;
70543;SDS011;58097;48.364;-1.224;2024-03-08T02:23:21;24.20;;;12.20;;
70543;SDS011;58097;48.364;-1.224;2024-03-08T02:25:47;23.70;;;12.43;;
70543;SDS011;58097;48.364;-1.224;2024-03-08T02:28:13;25.77;;;12.35;;
70543;SDS011;58097;48.364;-1.224;2024-03-08T02:30:39;25.95;;;11.32;;
70543;SDS011;58097;48.364;-1.224;2024-03-08T02:33:05;25.83;;;11.40;;
70543;SDS011;58097;48.364;-1.224;2024-03-08T02:35:31;24.15;;;12.23;;
70543;SDS011;58097;48.364;-1.224;2024-03-08T02:37:56;27.00;;;13.13;;
70543;SDS011;58097;48.364;-1.224;2024-03-08T02:40:22;26.50;;;13.15;;
70543;SDS011;58097;48.364;-1.224;2024-03-08T02:42:47;28.08;;;12.85;;
70543;SDS011;58097;48.364;-1.224;2024-03-08T02:45:13;27.00;;;13.27;;
70543;SDS011;58097;48.364;-1.224;2024-03-08T02:47:38;29.35;;;13.82;;
70543;SDS011;58097;48.364;-1.224;2024-03-08T02:50:04;31.95;;;14.55;;
70543;SDS011;58097;48.364;-1.224;2024-03-08T02:52:33;32.97;;;15.63;;
70543;SDS011;58097;48.364;-1.224;2024-03-08T02:55:01;33.22;;;15.00;;
70543;SDS011;58097;48.364;-1.224;2024-03-08T02:57:27;31.42;;;15.00;;
70543;SDS011;58097;48.364;-1.224;2024-03-08T02:59:53;36.78;;;15.80;;
70543;SDS011;58097;48.364;-1.224;2024-03-08T03:02:18;35.17;;;15.55;;
70543;SDS011;58097;48.364;-1.224;2024-03-08T03:04:44;34.60;;;16.23;;
70543;SDS011;58097;48.364;-1.224;2024-03-08T03:07:09;34.17;;;15.77;;
70543;SDS011;58097;48.364;-1.224;2024-03-08T03:09:34;39.30;;;16.92;;
70543;SDS011;58097;48.364;-1.224;2024-03-08T03:12:00;36.45;;;17.50;;
70543;SDS011;58097;48.364;-1.224;2024-03-08T03:14:25;35.72;;;16.67;;
70543;SDS011;58097;48.364;-1.224;2024-03-08T03:16:53;36.08;;;17.73;;
70543;SDS011;58097;48.364;-1.224;2024-03-08T03:19:19;39.10;;;18.13;;
70543;SDS011;58097;48.364;-1.224;2024-03-08T03:21:45;40.05;;;16.98;;
70543;SDS011;58097;48.364;-1.224;2024-03-08T03:24:11;45.95;;;19.30;;
70543;SDS011;58097;48.364;-1.224;2024-03-08T03:26:37;40.60;;;17.20;;
70543;SDS011;58097;48.364;-1.224;2024-03-08T03:29:06;42.40;;;18.10;;
70543;SDS011;58097;48.364;-1.224;2024-03-08T03:31:33;42.28;;;18.13;;
70543;SDS011;58097;48.364;-1.224;2024-03-08T03:33:59;38.75;;;17.65;;
70543;SDS011;58097;48.364;-1.224;2024-03-08T03:36:29;42.88;;;19.55;;
70543;SDS011;58097;48.364;-1.224;2024-03-08T03:38:55;37.47;;;17.05;;
70543;SDS011;58097;48.364;-1.224;2024-03-08T03:41:34;39.95;;;18.30;;
70543;SDS011;58097;48.364;-1.224;2024-03-08T03:44:00;40.70;;;18.25;;
70543;SDS011;58097;48.364;-1.224;2024-03-08T03:46:25;40.83;;;18.48;;
70543;SDS011;58097;48.364;-1.224;2024-03-08T03:48:52;39.08;;;17.75;;
70543;SDS011;58097;48.364;-1.224;2024-03-08T03:51:18;40.42;;;18.02;;
70543;SDS011;58097;48.364;-1.224;2024-03-08T03:53:45;42.92;;;18.90;;
70543;SDS011;58097;48.364;-1.224;2024-03-08T03:56:10;38.97;;;18.23;;
70543;SDS011;58097;48.364;-1.224;2024-03-08T03:58:35;38.28;;;17.50;;
70543;SDS011;58097;48.364;-1.224;2024-03-08T04:01:01;41.83;;;18.63;;
70543;SDS011;58097;48.364;-1.224;2024-03-08T04:03:26;40.67;;;18.85;;
70543;SDS011;58097;48.364;-1.224;2024-03-08T04:05:51;40.25;;;18.65;;
70543;SDS011;58097;48.364;-1.224;2024-03-08T04:08:17;40.17;;;18.98;;
70543;SDS011;58097;48.364;-1.224;2024-03-08T04:10:42;42.95;;;18.73;;
70543;SDS011;58097;48.364;-1.224;2024-03-08T04:13:07;42.70;;;18.25;;
70543;SDS011;58097;48.364;-1.224;2024-03-08T04:15:34;41.80;;;18.02;;
70543;SDS011;58097;48.364;-1.224;2024-03-08T04:18:00;41.42;;;18.30;;
70543;SDS011;58097;48.364;-1.224;2024-03-08T04:20:25;37.45;;;17.13;;
70543;SDS011;58097;48.364;-1.224;2024-03-08T04:22:51;36.42;;;16.85;;
70543;SDS011;58097;48.364;-1.224;2024-03-08T04:25:16;46.08;;;17.80;;
70543;SDS011;58097;48.364;-1.224;2024-03-08T04:27:42;39.00;;;16.52;;
70543;SDS011;58097;48.364;-1.224;2024-03-08T04:30:07;37.67;;;16.73;;
70543;SDS011;58097;48.364;-1.224;2024-03-08T04:32:33;35.08;;;17.40;;
70543;SDS011;58097;48.364;-1.224;2024-03-08T04:34:59;35.45;;;16.75;;
70543;SDS011;58097;48.364;-1.224;2024-03-08T04:37:26;41.90;;;17.42;;
70543;SDS011;58097;48.364;-1.224;2024-03-08T04:39:54;38.63;;;16.73;;
70543;SDS011;58097;48.364;-1.224;2024-03-08T04:42:20;35.42;;;17.42;;
70543;SDS011;58097;48.364;-1.224;2024-03-08T04:44:45;39.65;;;17.88;;
70543;SDS011;58097;48.364;-1.224;2024-03-08T04:47:11;37.15;;;17.00;;
70543;SDS011;58097;48.364;-1.224;2024-03-08T04:49:36;34.72;;;15.95;;
70543;SDS011;58097;48.364;-1.224;2024-03-08T04:52:02;38.55;;;17.95;;
70543;SDS011;58097;48.364;-1.224;2024-03-08T04:54:28;39.45;;;17.42;;
70543;SDS011;58097;48.364;-1.224;2024-03-08T04:56:54;40.83;;;18.13;;
70543;SDS011;58097;48.364;-1.224;2024-03-08T04:59:19;37.65;;;17.02;;
70543;SDS011;58097;48.364;-1.224;2024-03-08T05:01:45;38.17;;;17.10;;
70543;SDS011;58097;48.364;-1.224;2024-03-08T05:04:10;42.03;;;18.50;;
70543;SDS011;58097;48.364;-1.224;2024-03-08T05:06:35;33.80;;;16.02;;
70543;SDS011;58097;48.364;-1.224;2024-03-08T05:09:01;33.80;;;16.85;;
70543;SDS011;58097;48.364;-1.224;2024-03-08T05:11:41;32.45;;;15.45;;
70543;SDS011;58097;48.364;-1.224;2024-03-08T05:14:10;37.58;;;16.98;;
70543;SDS011;58097;48.364;-1.224;2024-03-08T05:16:38;34.97;;;16.35;;
70543;SDS011;58097;48.364;-1.224;2024-03-08T05:19:05;36.65;;;16.70;;
70543;SDS011;58097;48.364;-1.224;2024-03-08T05:21:30;36.05;;;16.10;;
70543;SDS011;58097;48.364;-1.224;2024-03-08T05:23:56;33.47;;;15.38;;
70543;SDS011;58097;48.364;-1.224;2024-03-08T05:26:21;35.42;;;15.75;;
70543;SDS011;58097;48.364;-1.224;2024-03-08T05:28:47;33.42;;;15.57;;
70543;SDS011;58097;48.364;-1.224;2024-03-08T05:31:22;33.35;;;15.10;;
70543;SDS011;58097;48.364;-1.224;2024-03-08T05:33:48;32.85;;;15.48;;
70543;SDS011;58097;48.364;-1.224;2024-03-08T05:36:14;30.58;;;15.18;;
70543;SDS011;58097;48.364;-1.224;2024-03-08T05:38:41;31.42;;;14.95;;
70543;SDS011;58097;48.364;-1.224;2024-03-08T05:41:08;32.13;;;15.40;;
70543;SDS011;58097;48.364;-1.224;2024-03-08T05:43:34;33.20;;;14.73;;
70543;SDS011;58097;48.364;-1.224;2024-03-08T05:45:59;36.92;;;15.70;;
70543;SDS011;58097;48.364;-1.224;2024-03-08T05:48:25;35.88;;;14.88;;
70543;SDS011;58097;48.364;-1.224;2024-03-08T05:50:50;29.05;;;15.00;;
70543;SDS011;58097;48.364;-1.224;2024-03-08T05:53:15;36.63;;;16.70;;
70543;SDS011;58097;48.364;-1.224;2024-03-08T05:55:41;33.38;;;14.35;;
70543;SDS011;58097;48.364;-1.224;2024-03-08T05:58:06;35.05;;;15.32;;
70543;SDS011;58097;48.364;-1.224;2024-03-08T06:00:33;30.15;;;14.65;;
70543;SDS011;58097;48.364;-1.224;2024-03-08T06:02:59;30.27;;;15.20;;
70543;SDS011;58097;48.364;-1.224;2024-03-08T06:05:24;29.63;;;14.43;;
70543;SDS011;58097;48.364;-1.224;2024-03-08T06:07:49;34.33;;;14.70;;
70543;SDS011;58097;48.364;-1.224;2024-03-08T06:10:18;36.53;;;15.07;;
70543;SDS011;58097;48.364;-1.224;2024-03-08T06:12:44;35.60;;;15.55;;
70543;SDS011;58097;48.364;-1.224;2024-03-08T06:15:10;32.45;;;15.45;;
70543;SDS011;58097;48.364;-1.224;2024-03-08T06:17:39;31.60;;;14.93;;
70543;SDS011;58097;48.364;-1.224;2024-03-08T06:20:05;30.40;;;15.05;;
70543;SDS011;58097;48.364;-1.224;2024-03-08T06:22:36;31.70;;;15.73;;
70543;SDS011;58097;48.364;-1.224;2024-03-08T06:25:03;35.42;;;15.85;;
70543;SDS011;58097;48.364;-1.224;2024-03-08T06:27:28;34.80;;;17.13;;
70543;SDS011;58097;48.364;-1.224;2024-03-08T06:29:54;36.50;;;16.23;;
70543;SDS011;58097;48.364;-1.224;2024-03-08T06:32:19;33.75;;;16.15;;
70543;SDS011;58097;48.364;-1.224;2024-03-08T06:34:44;34.85;;;16.15;;
70543;SDS011;58097;48.364;-1.224;2024-03-08T06:37:10;34.20;;;16.40;;
70543;SDS011;58097;48.364;-1.224;2024-03-08T06:39:35;33.75;;;16.00;;
70543;SDS011;58097;48.364;-1.224;2024-03-08T06:42:00;37.90;;;16.88;;
70543;SDS011;58097;48.364;-1.224;2024-03-08T06:44:26;34.67;;;15.85;;
70543;SDS011;58097;48.364;-1.224;2024-03-08T06:46:52;37.70;;;16.50;;
70543;SDS011;58097;48.364;-1.224;2024-03-08T06:49:17;34.38;;;16.83;;
70543;SDS011;58097;48.364;-1.224;2024-03-08T06:51:42;36.15;;;16.55;;
70543;SDS011;58097;48.364;-1.224;2024-03-08T06:54:08;37.67;;;17.05;;
70543;SDS011;58097;48.364;-1.224;2024-03-08T06:56:33;38.50;;;16.83;;
70543;SDS011;58097;48.364;-1.224;2024-03-08T06:58:59;37.30;;;16.58;;
70543;SDS011;58097;48.364;-1.224;2024-03-08T07:01:25;34.50;;;16.42;;
70543;SDS011;58097;48.364;-1.224;2024-03-08T07:03:50;36.72;;;16.88;;
70543;SDS011;58097;48.364;-1.224;2024-03-08T07:06:17;35.08;;;16.92;;
70543;SDS011;58097;48.364;-1.224;2024-03-08T07:08:44;41.47;;;17.33;;
70543;SDS011;58097;48.364;-1.224;2024-03-08T07:11:11;39.88;;;17.33;;
70543;SDS011;58097;48.364;-1.224;2024-03-08T07:13:37;36.72;;;17.65;;
70543;SDS011;58097;48.364;-1.224;2024-03-08T07:16:03;38.25;;;17.92;;
70543;SDS011;58097;48.364;-1.224;2024-03-08T07:18:30;42.33;;;18.65;;
70543;SDS011;58097;48.364;-1.224;2024-03-08T07:20:56;36.55;;;17.10;;
70543;SDS011;58097;48.364;-1.224;2024-03-08T07:23:22;37.95;;;17.35;;
70543;SDS011;58097;48.364;-1.224;2024-03-08T07:26:06;42.08;;;17.05;;
70543;SDS011;58097;48.364;-1.224;2024-03-08T07:28:31;36.05;;;16.70;;
70543;SDS011;58097;48.364;-1.224;2024-03-08T07:31:00;33.65;;;17.13;;
70543;SDS011;58097;48.364;-1.224;2024-03-08T07:33:45;35.33;;;16.77;;
70543;SDS011;58097;48.364;-1.224;2024-03-08T07:36:10;33.35;;;16.13;;
70543;SDS011;58097;48.364;-1.224;2024-03-08T07:38:36;37.05;;;16.92;;
70543;SDS011;58097;48.364;-1.224;2024-03-08T07:41:01;38.58;;;17.40;;
70543;SDS011;58097;48.364;-1.224;2024-03-08T07:43:27;38.40;;;15.90;;
70543;SDS011;58097;48.364;-1.224;2024-03-08T07:45:52;33.63;;;15.90;;
70543;SDS011;58097;48.364;-1.224;2024-03-08T07:48:20;36.65;;;15.70;;
70543;SDS011;58097;48.364;-1.224;2024-03-08T07:50:46;37.05;;;17.15;;
70543;SDS011;58097;48.364;-1.224;2024-03-08T07:53:11;38.83;;;17.20;;
70543;SDS011;58097;48.364;-1.224;2024-03-08T07:55:36;34.63;;;15.80;;
70543;SDS011;58097;48.364;-1.224;2024-03-08T07:58:02;37.67;;;16.70;;
70543;SDS011;58097;48.364;-1.224;2024-03-08T08:00:28;35.03;;;16.38;;
70543;SDS011;58097;48.364;-1.224;2024-03-08T08:02:56;38.00;;;16.98;;
70543;SDS011;58097;48.364;-1.224;2024-03-08T08:05:21;37.53;;;17.00;;
70543;SDS011;58097;48.364;-1.224;2024-03-08T08:07:47;33.47;;;16.70;;
70543;SDS011;58097;48.364;-1.224;2024-03-08T08:10:12;33.88;;;15.65;;
70543;SDS011;58097;48.364;-1.224;2024-03-08T08:12:49;34.17;;;17.00;;
70543;SDS011;58097;48.364;-1.224;2024-03-08T08:15:15;36.80;;;17.15;;
70543;SDS011;58097;48.364;-1.224;2024-03-08T08:17:49;29.23;;;15.13;;
70543;SDS011;58097;48.364;-1.224;2024-03-08T08:20:15;32.92;;;15.32;;
70543;SDS011;58097;48.364;-1.224;2024-03-08T08:22:41;36.20;;;16.98;;
70543;SDS011;58097;48.364;-1.224;2024-03-08T08:25:08;37.22;;;16.05;;
70543;SDS011;58097;48.364;-1.224;2024-03-08T08:27:33;36.80;;;16.75;;
70543;SDS011;58097;48.364;-1.224;2024-03-08T08:30:01;34.05;;;15.88;;
70543;SDS011;58097;48.364;-1.224;2024-03-08T08:32:27;35.67;;;16.77;;
70543;SDS011;58097;48.364;-1.224;2024-03-08T08:34:53;31.42;;;15.43;;
70543;SDS011;58097;48.364;-1.224;2024-03-08T08:37:18;36.15;;;15.32;;
70543;SDS011;58097;48.364;-1.224;2024-03-08T08:39:43;31.40;;;15.02;;
70543;SDS011;58097;48.364;-1.224;2024-03-08T08:42:09;37.47;;;15.95;;
70543;SDS011;58097;48.364;-1.224;2024-03-08T08:44:34;32.55;;;14.73;;
70543;SDS011;58097;48.364;-1.224;2024-03-08T08:47:00;32.63;;;14.68;;
70543;SDS011;58097;48.364;-1.224;2024-03-08T08:49:26;34.38;;;15.45;;
70543;SDS011;58097;48.364;-1.224;2024-03-08T08:51:52;28.98;;;13.05;;
70543;SDS011;58097;48.364;-1.224;2024-03-08T08:54:17;33.40;;;15.15;;
70543;SDS011;58097;48.364;-1.224;2024-03-08T08:56:43;28.83;;;14.43;;
70543;SDS011;58097;48.364;-1.224;2024-03-08T08:59:09;30.40;;;13.77;;
70543;SDS011;58097;48.364;-1.224;2024-03-08T09:01:38;29.20;;;14.80;;
70543;SDS011;58097;48.364;-1.224;2024-03-08T09:04:04;28.98;;;14.95;;
70543;SDS011;58097;48.364;-1.224;2024-03-08T09:06:29;30.75;;;13.20;;
70543;SDS011;58097;48.364;-1.224;2024-03-08T09:08:55;28.02;;;13.43;;
70543;SDS011;58097;48.364;-1.224;2024-03-08T09:11:20;24.55;;;12.82;;
70543;SDS011;58097;48.364;-1.224;2024-03-08T09:13:45;29.98;;;13.63;;
70543;SDS011;58097;48.364;-1.224;2024-03-08T09:16:14;27.88;;;14.02;;
70543;SDS011;58097;48.364;-1.224;2024-03-08T09:18:39;27.15;;;14.02;;
70543;SDS011;58097;48.364;-1.224;2024-03-08T09:21:06;28.65;;;13.35;;
70543;SDS011;58097;48.364;-1.224;2024-03-08T09:23:34;23.27;;;12.35;;
70543;SDS011;58097;48.364;-1.224;2024-03-08T09:26:00;30.27;;;13.57;;
70543;SDS011;58097;48.364;-1.224;2024-03-08T09:28:28;23.45;;;12.70;;
70543;SDS011;58097;48.364;-1.224;2024-03-08T09:30:53;22.63;;;12.05;;
70543;SDS011;58097;48.364;-1.224;2024-03-08T09:33:19;24.90;;;11.60;;
70543;SDS011;58097;48.364;-1.224;2024-03-08T09:35:46;20.73;;;11.38;;
70543;SDS011;58097;48.364;-1.224;2024-03-08T09:38:13;26.55;;;11.40;;
70543;SDS011;58097;48.364;-1.224;2024-03-08T09:40:42;22.77;;;11.77;;
70543;SDS011;58097;48.364;-1.224;2024-03-08T09:43:08;24.88;;;12.02;;
70543;SDS011;58097;48.364;-1.224;2024-03-08T09:45:36;25.60;;;11.65;;
70543;SDS011;58097;48.364;-1.224;2024-03-08T09:48:07;26.70;;;12.73;;
70543;SDS011;58097;48.364;-1.224;2024-03-08T09:50:37;24.48;;;12.15;;
70543;SDS011;58097;48.364;-1.224;2024-03-08T09:53:03;25.00;;;11.70;;
70543;SDS011;58097;48.364;-1.224;2024-03-08T09:55:29;28.20;;;12.23;;
70543;SDS011;58097;48.364;-1.224;2024-03-08T09:57:59;30.67;;;11.88;;
70543;SDS011;58097;48.364;-1.224;2024-03-08T10:00:55;26.98;;;11.93;;
70543;SDS011;58097;48.364;-1.224;2024-03-08T10:03:26;23.58;;;12.18;;
70543;SDS011;58097;48.364;-1.224;2024-03-08T10:05:52;26.95;;;12.57;;
70543;SDS011;58097;48.364;-1.224;2024-03-08T10:08:21;28.73;;;13.90;;
70543;SDS011;58097;48.364;-1.224;2024-03-08T10:10:47;30.80;;;14.50;;
70543;SDS011;58097;48.364;-1.224;2024-03-08T10:13:14;30.02;;;13.77;;
70543;SDS011;58097;48.364;-1.224;2024-03-08T10:15:41;23.88;;;12.02;;
70543;SDS011;58097;48.364;-1.224;2024-03-08T10:18:07;22.30;;;11.32;;
70543;SDS011;58097;48.364;-1.224;2024-03-08T10:20:33;26.25;;;11.13;;
70543;SDS011;58097;48.364;-1.224;2024-03-08T10:23:04;25.83;;;11.02;;
70543;SDS011;58097;48.364;-1.224;2024-03-08T10:25:33;24.85;;;11.48;;
70543;SDS011;58097;48.364;-1.224;2024-03-08T10:27:59;26.75;;;11.48;;
70543;SDS011;58097;48.364;-1.224;2024-03-08T10:30:24;26.80;;;12.60;;
70543;SDS011;58097;48.364;-1.224;2024-03-08T10:32:50;25.20;;;9.98;;
70543;SDS011;58097;48.364;-1.224;2024-03-08T10:35:16;23.15;;;10.77;;
70543;SDS011;58097;48.364;-1.224;2024-03-08T10:37:46;18.80;;;10.27;;
70543;SDS011;58097;48.364;-1.224;2024-03-08T10:40:23;25.63;;;11.07;;
70543;SDS011;58097;48.364;-1.224;2024-03-08T10:42:53;17.35;;;9.32;;
70543;SDS011;58097;48.364;-1.224;2024-03-08T10:47:55;18.33;;;9.85;;
70543;SDS011;58097;48.364;-1.224;2024-03-08T10:50:34;21.40;;;9.70;;
70543;SDS011;58097;48.364;-1.224;2024-03-08T10:53:00;22.98;;;10.43;;
70543;SDS011;58097;48.364;-1.224;2024-03-08T10:55:28;19.70;;;10.60;;
70543;SDS011;58097;48.364;-1.224;2024-03-08T10:57:53;19.60;;;9.75;;
70543;SDS011;58097;48.364;-1.224;2024-03-08T11:00:19;20.83;;;9.10;;
70543;SDS011;58097;48.364;-1.224;2024-03-08T11:02:52;19.00;;;8.73;;
70543;SDS011;58097;48.364;-1.224;2024-03-08T11:05:37;21.02;;;9.80;;
70543;SDS011;58097;48.364;-1.224;2024-03-08T11:08:20;18.88;;;8.13;;
70543;SDS011;58097;48.364;-1.224;2024-03-08T11:10:49;16.90;;;8.85;;
70543;SDS011;58097;48.364;-1.224;2024-03-08T11:13:36;19.45;;;9.27;;
70543;SDS011;58097;48.364;-1.224;2024-03-08T11:16:12;21.08;;;9.10;;
70543;SDS011;58097;48.364;-1.224;2024-03-08T11:18:58;17.83;;;8.73;;
70543;SDS011;58097;48.364;-1.224;2024-03-08T11:21:31;22.23;;;10.88;;
70543;SDS011;58097;48.364;-1.224;2024-03-08T11:24:11;24.25;;;11.02;;
70543;SDS011;58097;48.364;-1.224;2024-03-08T11:26:38;27.40;;;13.02;;
70543;SDS011;58097;48.364;-1.224;2024-03-08T11:32:08;22.27;;;10.13;;
70543;SDS011;58097;48.364;-1.224;2024-03-08T11:34:36;15.77;;;8.77;;
70543;SDS011;58097;48.364;-1.224;2024-03-08T11:37:05;15.98;;;8.38;;
70543;SDS011;58097;48.364;-1.224;2024-03-08T11:39:37;14.02;;;7.20;;
70543;SDS011;58097;48.364;-1.224;2024-03-08T11:42:04;17.55;;;8.20;;
70543;SDS011;58097;48.364;-1.224;2024-03-08T11:44:30;14.68;;;7.45;;
70543;SDS011;58097;48.364;-1.224;2024-03-08T11:46:56;16.58;;;7.60;;
70543;SDS011;58097;48.364;-1.224;2024-03-08T11:49:22;17.05;;;7.68;;
70543;SDS011;58097;48.364;-1.224;2024-03-08T11:51:50;17.63;;;7.43;;
70543;SDS011;58097;48.364;-1.224;2024-03-08T11:54:17;18.77;;;7.15;;
70543;SDS011;58097;48.364;-1.224;2024-03-08T11:56:43;17.60;;;7.30;;
70543;SDS011;58097;48.364;-1.224;2024-03-08T11:59:12;12.20;;;6.85;;
70543;SDS011;58097;48.364;-1.224;2024-03-08T12:01:38;18.83;;;8.35;;
70543;SDS011;58097;48.364;-1.224;2024-03-08T12:04:04;18.02;;;7.35;;
70543;SDS011;58097;48.364;-1.224;2024-03-08T12:06:37;15.30;;;6.72;;
70543;SDS011;58097;48.364;-1.224;2024-03-08T12:09:04;17.73;;;7.03;;
70543;SDS011;58097;48.364;-1.224;2024-03-08T12:11:34;19.08;;;7.07;;
70543;SDS011;58097;48.364;-1.224;2024-03-08T12:14:01;17.83;;;7.20;;
70543;SDS011;58097;48.364;-1.224;2024-03-08T12:16:26;12.40;;;6.55;;
70543;SDS011;58097;48.364;-1.224;2024-03-08T12:18:52;11.95;;;6.22;;
70543;SDS011;58097;48.364;-1.224;2024-03-08T12:21:18;15.32;;;6.68;;
70543;SDS011;58097;48.364;-1.224;2024-03-08T12:24:01;20.15;;;6.45;;
70543;SDS011;58097;48.364;-1.224;2024-03-08T12:26:28;14.93;;;6.75;;
70543;SDS011;58097;48.364;-1.224;2024-03-08T12:29:00;16.08;;;6.05;;
70543;SDS011;58097;48.364;-1.224;2024-03-08T12:31:41;13.43;;;6.43;;
70543;SDS011;58097;48.364;-1.224;2024-03-08T12:34:07;13.05;;;6.65;;
70543;SDS011;58097;48.364;-1.224;2024-03-08T12:36:34;13.88;;;6.50;;
70543;SDS011;58097;48.364;-1.224;2024-03-08T12:39:01;12.75;;;6.43;;
70543;SDS011;58097;48.364;-1.224;2024-03-08T12:41:29;12.10;;;5.72;;
70543;SDS011;58097;48.364;-1.224;2024-03-08T12:43:54;13.00;;;6.90;;
70543;SDS011;58097;48.364;-1.224;2024-03-08T12:46:21;11.40;;;6.07;;
70543;SDS011;58097;48.364;-1.224;2024-03-08T12:48:51;13.67;;;6.30;;
70543;SDS011;58097;48.364;-1.224;2024-03-08T12:51:19;12.60;;;6.22;;
70543;SDS011;58097;48.364;-1.224;2024-03-08T12:53:45;12.00;;;6.18;;
70543;SDS011;58097;48.364;-1.224;2024-03-08T12:56:11;11.05;;;6.40;;
70543;SDS011;58097;48.364;-1.224;2024-03-08T12:58:37;14.05;;;6.32;;
70543;SDS011;58097;48.364;-1.224;2024-03-08T13:01:04;17.95;;;6.53;;
70543;SDS011;58097;48.364;-1.224;2024-03-08T13:03:30;15.30;;;5.85;;
70543;SDS011;58097;48.364;-1.224;2024-03-08T13:05:56;14.93;;;6.55;;
70543;SDS011;58097;48.364;-1.224;2024-03-08T13:08:22;11.25;;;6.13;;
70543;SDS011;58097;48.364;-1.224;2024-03-08T13:10:49;18.92;;;6.47;;
70543;SDS011;58097;48.364;-1.224;2024-03-08T13:13:16;12.70;;;6.10;;
70543;SDS011;58097;48.364;-1.224;2024-03-08T13:15:42;13.27;;;6.28;;
70543;SDS011;58097;48.364;-1.224;2024-03-08T13:18:08;12.38;;;5.90;;
70543;SDS011;58097;48.364;-1.224;2024-03-08T13:20:34;12.57;;;6.20;;
70543;SDS011;58097;48.364;-1.224;2024-03-08T13:23:02;12.40;;;5.43;;
70543;SDS011;58097;48.364;-1.224;2024-03-08T13:25:29;13.35;;;6.15;;
70543;SDS011;58097;48.364;-1.224;2024-03-08T13:27:55;17.45;;;5.93;;
70543;SDS011;58097;48.364;-1.224;2024-03-08T13:30:24;11.77;;;5.65;;
70543;SDS011;58097;48.364;-1.224;2024-03-08T13:32:51;11.68;;;5.60;;
70543;SDS011;58097;48.364;-1.224;2024-03-08T13:35:18;16.20;;;7.18;;
70543;SDS011;58097;48.364;-1.224;2024-03-08T13:37:49;13.40;;;6.45;;
70543;SDS011;58097;48.364;-1.224;2024-03-08T13:40:16;14.43;;;5.97;;
70543;SDS011;58097;48.364;-1.224;2024-03-08T13:42:43;12.18;;;5.70;;
70543;SDS011;58097;48.364;-1.224;2024-03-08T13:45:09;16.65;;;6.78;;
70543;SDS011;58097;48.364;-1.224;2024-03-08T13:47:38;14.63;;;5.45;;
70543;SDS011;58097;48.364;-1.224;2024-03-08T13:50:07;12.80;;;5.60;;
70543;SDS011;58097;48.364;-1.224;2024-03-08T13:52:36;13.18;;;5.80;;
70543;SDS011;58097;48.364;-1.224;2024-03-08T13:55:03;16.83;;;5.68;;
70543;SDS011;58097;48.364;-1.224;2024-03-08T13:57:30;10.40;;;4.80;;
70543;SDS011;58097;48.364;-1.224;2024-03-08T13:59:55;16.75;;;5.93;;
70543;SDS011;58097;48.364;-1.224;2024-03-08T14:02:20;16.83;;;5.75;;
70543;SDS011;58097;48.364;-1.224;2024-03-08T14:04:47;17.50;;;5.32;;
70543;SDS011;58097;48.364;-1.224;2024-03-08T14:07:14;16.73;;;5.75;;
70543;SDS011;58097;48.364;-1.224;2024-03-08T14:09:41;12.05;;;5.63;;
70543;SDS011;58097;48.364;-1.224;2024-03-08T14:12:08;11.50;;;5.35;;
70543;SDS011;58097;48.364;-1.224;2024-03-08T14:14:34;13.18;;;5.88;;
70543;SDS011;58097;48.364;-1.224;2024-03-08T14:17:00;13.52;;;5.95;;